Time;durP1;ratioP1;P1;durP2;ratioP2;P2;SDS_P1;SDS_P2;PMS_P1;PMS_P2;Temp;Humidity;BMP_temperature;BMP_pressure;BME280_temperature;BME280_humidity;BME280_pressure;Samples;Min_cycle;Max_cycle;Signal;HPM_P1;HPM_P2
2023/12/30 00:00:48;;;;;;;3.00;1.55;;;;;;;;;;2027345;29;20056;-52
2023/12/30 00:01:49;;;;;;;3.15;1.60;;;;;;;;;;2027253;29;20056;-52
2023/12/30 00:02:50;;;;;;;4.53;1.80;;;;;;;;;;2027395;29;20059;-52
2023/12/30 00:03:51;;;;;;;3.60;1.60;;;;;;;;;;2027818;29;20533;-53
2023/12/30 00:04:52;;;;;;;2.50;1.30;;;;;;;;;;2027575;29;20043;-53
2023/12/30 00:05:53;;;;;;;4.10;1.95;;;;;;;;;;2027008;29;20040;-52
2023/12/30 00:06:53;;;;;;;2.92;1.50;;;;;;;;;;2027012;29;20052;-52
2023/12/30 00:07:54;;;;;;;2.97;1.60;;;;;;;;;;2027381;29;20037;-54
2023/12/30 00:08:55;;;;;;;2.42;1.48;;;;;;;;;;2027243;29;20055;-52
2023/12/30 00:09:55;;;;;;;3.80;1.17;;;;;;;;;;2027841;29;20037;-53
2023/12/30 00:10:56;;;;;;;2.80;1.67;;;;;;;;;;2026815;29;20412;-52
2023/12/30 00:11:57;;;;;;;2.67;1.33;;;;;;;;;;2026753;29;20057;-53
2023/12/30 00:12:58;;;;;;;2.60;1.60;;;;;;;;;;2026856;29;20049;-52
2023/12/30 00:13:59;;;;;;;2.60;1.40;;;;;;;;;;2027604;29;20047;-53
2023/12/30 00:15:00;;;;;;;2.25;1.35;;;;;;;;;;2026740;29;20048;-52
2023/12/30 00:16:01;;;;;;;3.85;1.63;;;;;;;;;;2027475;29;20069;-52
2023/12/30 00:17:01;;;;;;;2.00;0.90;;;;;;;;;;2027500;29;20047;-52
2023/12/30 00:18:03;;;;;;;2.35;1.55;;;;;;;;;;2026861;29;20139;-53
2023/12/30 00:19:03;;;;;;;2.45;1.20;;;;;;;;;;2026856;29;20063;-52
2023/12/30 00:20:05;;;;;;;3.28;1.50;;;;;;;;;;2027637;29;20075;-53
2023/12/30 00:21:06;;;;;;;2.08;1.15;;;;;;;;;;2027532;29;20044;-52
2023/12/30 00:22:07;;;;;;;3.33;1.00;;;;;;;;;;2026844;29;20076;-53
2023/12/30 00:23:08;;;;;;;1.20;0.90;;;;;;;;;;2026803;29;20045;-53
2023/12/30 00:24:08;;;;;;;4.65;1.88;;;;;;;;;;2027737;29;20120;-53
2023/12/30 00:25:10;;;;;;;3.33;1.50;;;;;;;;;;2026838;29;20059;-52
2023/12/30 00:26:23;;;;;;;2.83;1.30;;;;;;;;;;2027057;29;20075;-52
2023/12/30 00:27:37;;;;;;;5.45;1.88;;;;;;;;;;2027756;29;20371;-53
2023/12/30 00:28:37;;;;;;;2.75;1.23;;;;;;;;;;2026517;29;20076;-52
2023/12/30 00:29:39;;;;;;;2.25;1.10;;;;;;;;;;2026029;29;20045;-52
2023/12/30 00:30:39;;;;;;;3.60;1.45;;;;;;;;;;2026729;29;20032;-54
2023/12/30 00:31:40;;;;;;;1.05;0.85;;;;;;;;;;2025964;29;20044;-52
2023/12/30 00:32:41;;;;;;;1.38;0.95;;;;;;;;;;2026992;29;20048;-53
2023/12/30 00:33:41;;;;;;;2.65;1.48;;;;;;;;;;2026995;29;20458;-52
2023/12/30 00:34:42;;;;;;;2.40;1.33;;;;;;;;;;2026760;29;20052;-53
2023/12/30 00:35:43;;;;;;;5.60;1.50;;;;;;;;;;2026779;29;20044;-53
2023/12/30 00:36:44;;;;;;;1.80;0.73;;;;;;;;;;2018623;29;20509;-53
2023/12/30 00:37:44;;;;;;;2.97;1.38;;;;;;;;;;2011136;29;20057;-53
2023/12/30 00:38:46;;;;;;;4.30;1.73;;;;;;;;;;2019087;29;20498;-52
2023/12/30 00:39:47;;;;;;;1.80;1.00;;;;;;;;;;2026471;29;20148;-52
2023/12/30 00:40:47;;;;;;;3.45;1.70;;;;;;;;;;2027375;29;20044;-53
2023/12/30 00:41:48;;;;;;;4.93;1.52;;;;;;;;;;2026668;29;20489;-52
2023/12/30 00:42:49;;;;;;;2.42;1.25;;;;;;;;;;2027437;29;20497;-53
2023/12/30 00:43:50;;;;;;;3.15;1.58;;;;;;;;;;2018408;29;20045;-53
2023/12/30 00:44:50;;;;;;;1.98;1.10;;;;;;;;;;2019239;29;20073;-53
2023/12/30 00:45:51;;;;;;;4.60;1.73;;;;;;;;;;2027426;29;20032;-53
2023/12/30 00:46:52;;;;;;;2.85;0.95;;;;;;;;;;2027221;29;20066;-52
2023/12/30 00:47:53;;;;;;;5.75;1.73;;;;;;;;;;2027350;29;20068;-52
2023/12/30 00:48:53;;;;;;;1.25;0.70;;;;;;;;;;2026563;29;20509;-53
2023/12/30 00:49:54;;;;;;;3.22;1.42;;;;;;;;;;2026375;29;20052;-53
2023/12/30 00:50:55;;;;;;;2.55;1.10;;;;;;;;;;2027475;29;20454;-53
2023/12/30 00:51:56;;;;;;;2.20;1.40;;;;;;;;;;2026438;29;20040;-53
2023/12/30 00:52:56;;;;;;;4.03;1.30;;;;;;;;;;2026696;29;20044;-53
2023/12/30 00:53:57;;;;;;;1.92;0.75;;;;;;;;;;2027222;29;20051;-53
2023/12/30 00:54:58;;;;;;;2.30;1.20;;;;;;;;;;2026259;29;20423;-53
2023/12/30 00:55:59;;;;;;;2.80;1.60;;;;;;;;;;2026994;29;20072;-52
2023/12/30 00:56:59;;;;;;;4.03;1.55;;;;;;;;;;2027493;29;20464;-54
2023/12/30 00:58:00;;;;;;;2.25;1.25;;;;;;;;;;2026382;29;20048;-53
2023/12/30 00:59:01;;;;;;;2.85;1.33;;;;;;;;;;2028271;29;20461;-52
2023/12/30 01:00:01;;;;;;;3.60;1.05;;;;;;;;;;2027966;29;20047;-52
2023/12/30 01:01:02;;;;;;;4.18;1.58;;;;;;;;;;2027875;29;20056;-52
2023/12/30 01:02:03;;;;;;;2.17;1.25;;;;;;;;;;2027646;29;20048;-53
2023/12/30 01:03:04;;;;;;;3.65;1.88;;;;;;;;;;2028318;29;20076;-53
2023/12/30 01:04:04;;;;;;;2.30;1.20;;;;;;;;;;2027549;29;20350;-53
2023/12/30 01:05:05;;;;;;;3.13;1.52;;;;;;;;;;2027319;29;20044;-53
2023/12/30 01:06:06;;;;;;;1.73;1.08;;;;;;;;;;2027145;29;20037;-53
2023/12/30 01:07:07;;;;;;;2.75;1.50;;;;;;;;;;2026900;29;20056;-54
2023/12/30 01:08:07;;;;;;;2.25;0.85;;;;;;;;;;2027233;29;20051;-52
2023/12/30 01:09:08;;;;;;;2.40;1.10;;;;;;;;;;2027096;29;20033;-53
2023/12/30 01:10:09;;;;;;;2.45;1.05;;;;;;;;;;2018869;29;20548;-52
2023/12/30 01:11:11;;;;;;;2.33;1.30;;;;;;;;;;2018661;29;20044;-52
2023/12/30 01:12:11;;;;;;;2.47;1.42;;;;;;;;;;2018656;29;20060;-53
2023/12/30 01:13:12;;;;;;;1.45;0.90;;;;;;;;;;2027212;29;20044;-53
2023/12/30 01:14:13;;;;;;;5.70;1.73;;;;;;;;;;2018796;29;20128;-53
2023/12/30 01:15:13;;;;;;;3.28;1.60;;;;;;;;;;2002939;29;20065;-53
2023/12/30 01:16:16;;;;;;;3.28;1.20;;;;;;;;;;2010992;29;20421;-53
2023/12/30 01:17:16;;;;;;;3.92;1.27;;;;;;;;;;2026321;29;20056;-53
2023/12/30 01:18:17;;;;;;;2.85;1.48;;;;;;;;;;2018126;29;20443;-52
2023/12/30 01:19:18;;;;;;;3.20;1.00;;;;;;;;;;2018610;29;20029;-54
2023/12/30 01:20:19;;;;;;;2.40;1.40;;;;;;;;;;2018649;29;20048;-52
2023/12/30 01:21:19;;;;;;;2.85;1.55;;;;;;;;;;2010817;29;20037;-52
2023/12/30 01:22:20;;;;;;;2.97;1.30;;;;;;;;;;2018304;29;20537;-53
2023/12/30 01:23:21;;;;;;;2.53;1.25;;;;;;;;;;2026197;29;20040;-52
2023/12/30 01:24:22;;;;;;;3.78;1.30;;;;;;;;;;2026119;29;20375;-52
2023/12/30 01:25:23;;;;;;;2.47;1.30;;;;;;;;;;2026754;29;20037;-53
2023/12/30 01:26:24;;;;;;;2.85;1.45;;;;;;;;;;2026205;29;20032;-53
2023/12/30 01:27:24;;;;;;;2.35;1.33;;;;;;;;;;2025758;29;20100;-52
2023/12/30 01:28:25;;;;;;;2.47;1.40;;;;;;;;;;2026326;29;20059;-53
2023/12/30 01:29:29;;;;;;;2.60;1.00;;;;;;;;;;2027292;29;20028;-53
2023/12/30 01:30:29;;;;;;;1.45;1.00;;;;;;;;;;2027146;29;20035;-52
2023/12/30 01:31:30;;;;;;;2.10;1.00;;;;;;;;;;2026294;29;20032;-53
2023/12/30 01:32:31;;;;;;;3.53;1.52;;;;;;;;;;2026325;29;20071;-53
2023/12/30 01:33:31;;;;;;;2.28;1.33;;;;;;;;;;2026135;29;20049;-53
2023/12/30 01:34:33;;;;;;;3.28;1.52;;;;;;;;;;2026680;29;20043;-53
2023/12/30 01:35:33;;;;;;;2.35;1.42;;;;;;;;;;2026796;29;20039;-52
2023/12/30 01:36:34;;;;;;;4.10;1.75;;;;;;;;;;2026597;29;20032;-53
2023/12/30 01:37:35;;;;;;;2.47;1.35;;;;;;;;;;2025881;29;20493;-52
2023/12/30 01:38:35;;;;;;;2.60;1.58;;;;;;;;;;2018121;29;20037;-53
2023/12/30 01:39:37;;;;;;;4.40;1.67;;;;;;;;;;2018677;29;20025;-53
2023/12/30 01:40:37;;;;;;;2.90;1.10;;;;;;;;;;2018664;29;20462;-52
2023/12/30 01:41:38;;;;;;;3.80;1.33;;;;;;;;;;2018881;29;20036;-52
2023/12/30 01:42:40;;;;;;;3.22;1.48;;;;;;;;;;2026224;29;20104;-53
2023/12/30 01:43:41;;;;;;;2.75;1.60;;;;;;;;;;2025716;29;20052;-53
2023/12/30 01:44:41;;;;;;;2.55;1.50;;;;;;;;;;2026383;29;20031;-52
2023/12/30 01:45:42;;;;;;;3.28;1.80;;;;;;;;;;2018715;29;20482;-53
2023/12/30 01:46:44;;;;;;;2.75;1.50;;;;;;;;;;2017732;29;20037;-52
2023/12/30 01:47:45;;;;;;;1.98;1.20;;;;;;;;;;2018325;29;20421;-53
2023/12/30 01:48:45;;;;;;;4.18;1.58;;;;;;;;;;2010743;29;20053;-53
2023/12/30 01:49:46;;;;;;;3.00;1.63;;;;;;;;;;2018435;29;20061;-53
2023/12/30 01:50:48;;;;;;;4.45;1.88;;;;;;;;;;2026707;29;20047;-54
2023/12/30 01:51:48;;;;;;;2.90;1.05;;;;;;;;;;2026386;29;20469;-53
2023/12/30 01:52:49;;;;;;;2.70;1.80;;;;;;;;;;2026441;29;20037;-52
2023/12/30 01:53:50;;;;;;;2.20;1.60;;;;;;;;;;2026271;29;20037;-52
2023/12/30 01:54:51;;;;;;;3.95;1.52;;;;;;;;;;2027057;29;20168;-53
2023/12/30 01:55:51;;;;;;;4.10;1.70;;;;;;;;;;2026172;29;20040;-53
2023/12/30 01:56:52;;;;;;;2.05;1.35;;;;;;;;;;2018019;29;20100;-53
2023/12/30 01:57:53;;;;;;;3.58;1.75;;;;;;;;;;2003088;29;20105;-52
2023/12/30 01:58:53;;;;;;;2.25;1.20;;;;;;;;;;2003062;29;20049;-53
2023/12/30 01:59:54;;;;;;;2.65;1.95;;;;;;;;;;2018630;29;20044;-53
2023/12/30 02:00:55;;;;;;;2.55;1.52;;;;;;;;;;2018316;29;20120;-52
2023/12/30 02:01:56;;;;;;;3.20;1.27;;;;;;;;;;2010752;29;20117;-52
2023/12/30 02:02:57;;;;;;;4.55;1.73;;;;;;;;;;2017754;29;20072;-53
2023/12/30 02:03:57;;;;;;;2.58;1.27;;;;;;;;;;2025406;29;20522;-54
2023/12/30 02:04:58;;;;;;;3.17;1.17;;;;;;;;;;2018403;29;20470;-52
2023/12/30 02:05:59;;;;;;;2.45;1.40;;;;;;;;;;2010619;29;20045;-53
2023/12/30 02:07:00;;;;;;;3.15;1.58;;;;;;;;;;2017714;29;20529;-53
2023/12/30 02:08:01;;;;;;;2.95;1.35;;;;;;;;;;2026781;29;20110;-52
2023/12/30 02:09:02;;;;;;;3.38;1.50;;;;;;;;;;2025859;29;20131;-52
2023/12/30 02:10:03;;;;;;;4.32;1.65;;;;;;;;;;2026107;29;20045;-53
2023/12/30 02:11:04;;;;;;;2.05;1.30;;;;;;;;;;2026387;29;20052;-53
2023/12/30 02:12:05;;;;;;;2.20;1.58;;;;;;;;;;2025661;29;20405;-53
2023/12/30 02:13:06;;;;;;;2.22;1.27;;;;;;;;;;2018523;29;20048;-52
2023/12/30 02:14:26;;;;;;;3.63;1.33;;;;;;;;;;2018001;29;20045;-52
2023/12/30 02:15:27;;;;;;;3.38;1.45;;;;;;;;;;2026385;29;20032;-53
2023/12/30 02:16:28;;;;;;;2.95;1.33;;;;;;;;;;2026314;29;20398;-53
2023/12/30 02:17:28;;;;;;;2.35;0.73;;;;;;;;;;2018403;29;20056;-53
2023/12/30 02:18:29;;;;;;;2.88;1.42;;;;;;;;;;2010573;29;20037;-53
2023/12/30 02:19:30;;;;;;;3.03;1.50;;;;;;;;;;2018085;29;20052;-53
2023/12/30 02:20:31;;;;;;;4.60;1.20;;;;;;;;;;2026634;29;20028;-52
2023/12/30 02:21:32;;;;;;;4.32;1.60;;;;;;;;;;2025904;29;20401;-53
2023/12/30 02:22:32;;;;;;;2.72;1.42;;;;;;;;;;2026004;29;20049;-52
2023/12/30 02:23:33;;;;;;;2.60;1.50;;;;;;;;;;2026151;29;20051;-52
2023/12/30 02:24:34;;;;;;;2.42;1.42;;;;;;;;;;2026543;29;20032;-52
2023/12/30 02:25:35;;;;;;;4.35;1.38;;;;;;;;;;2026026;29;20052;-53
2023/12/30 02:26:35;;;;;;;2.15;1.20;;;;;;;;;;2018336;29;20429;-53
2023/12/30 02:27:36;;;;;;;2.65;1.60;;;;;;;;;;2018577;29;20037;-53
2023/12/30 02:28:38;;;;;;;2.17;1.30;;;;;;;;;;2026115;29;20371;-53
2023/12/30 02:29:39;;;;;;;4.10;1.60;;;;;;;;;;2018109;29;20056;-52
2023/12/30 02:30:39;;;;;;;2.22;0.77;;;;;;;;;;2017444;29;20037;-54
2023/12/30 02:31:46;;;;;;;3.03;1.25;;;;;;;;;;2026574;29;20032;-53
2023/12/30 02:32:47;;;;;;;2.88;1.20;;;;;;;;;;2026051;29;20045;-53
2023/12/30 02:33:48;;;;;;;2.40;1.50;;;;;;;;;;2025890;29;20050;-53
2023/12/30 02:34:49;;;;;;;3.22;1.30;;;;;;;;;;2017633;29;20537;-57
2023/12/30 02:35:49;;;;;;;3.92;1.30;;;;;;;;;;2010262;29;20045;-52
2023/12/30 02:36:50;;;;;;;1.45;0.98;;;;;;;;;;2018108;29;20100;-53
2023/12/30 02:37:52;;;;;;;2.42;1.13;;;;;;;;;;2026157;29;20083;-53
2023/12/30 02:38:53;;;;;;;2.40;1.13;;;;;;;;;;2025957;29;20486;-54
2023/12/30 02:39:53;;;;;;;1.52;0.90;;;;;;;;;;2018141;29;20053;-53
2023/12/30 02:40:54;;;;;;;3.40;1.23;;;;;;;;;;2018158;29;20482;-54
2023/12/30 02:41:55;;;;;;;1.35;0.90;;;;;;;;;;2025702;29;20594;-52
2023/12/30 02:42:56;;;;;;;3.03;1.08;;;;;;;;;;2025199;29;20044;-52
2023/12/30 02:43:57;;;;;;;3.50;1.10;;;;;;;;;;2025467;29;20040;-53
2023/12/30 02:44:59;;;;;;;1.98;0.95;;;;;;;;;;2026332;29;20036;-52
2023/12/30 02:46:00;;;;;;;2.50;1.33;;;;;;;;;;2026754;29;20037;-53
2023/12/30 02:47:00;;;;;;;1.63;1.00;;;;;;;;;;2025804;29;20048;-53
2023/12/30 02:48:01;;;;;;;1.77;0.90;;;;;;;;;;2026377;29;20036;-53
2023/12/30 02:49:03;;;;;;;2.25;0.90;;;;;;;;;;2026043;29;20124;-52
2023/12/30 02:50:04;;;;;;;1.50;0.85;;;;;;;;;;2017240;29;20056;-53
2023/12/30 02:51:04;;;;;;;1.83;0.90;;;;;;;;;;2010391;29;20205;-54
2023/12/30 02:52:05;;;;;;;3.70;1.05;;;;;;;;;;2017759;29;20048;-52
2023/12/30 02:53:06;;;;;;;1.63;0.90;;;;;;;;;;2026370;29;20491;-52
2023/12/30 02:54:07;;;;;;;1.67;0.80;;;;;;;;;;2018186;29;20421;-53
2023/12/30 02:55:08;;;;;;;1.67;0.90;;;;;;;;;;2018496;29;20037;-52
2023/12/30 02:56:18;;;;;;;1.35;0.75;;;;;;;;;;2026583;29;20048;-52
2023/12/30 02:57:19;;;;;;;1.23;0.73;;;;;;;;;;2026194;29;20036;-53
2023/12/30 02:58:20;;;;;;;2.20;0.90;;;;;;;;;;2026648;29;20164;-53
2023/12/30 02:59:20;;;;;;;1.90;0.82;;;;;;;;;;2025755;29;20041;-53
2023/12/30 03:00:21;;;;;;;2.05;0.75;;;;;;;;;;2025683;29;20044;-52
2023/12/30 03:01:23;;;;;;;2.55;0.80;;;;;;;;;;2025379;29;20040;-53
2023/12/30 03:02:24;;;;;;;1.63;0.90;;;;;;;;;;2026054;29;20045;-53
2023/12/30 03:03:26;;;;;;;1.98;0.70;;;;;;;;;;2025413;29;20040;-53
2023/12/30 03:04:27;;;;;;;1.17;0.60;;;;;;;;;;2017924;29;20477;-54
2023/12/30 03:05:27;;;;;;;2.92;0.73;;;;;;;;;;2018315;29;20037;-53
2023/12/30 03:06:28;;;;;;;1.00;0.57;;;;;;;;;;2026175;29;20095;-53
2023/12/30 03:07:29;;;;;;;2.22;0.50;;;;;;;;;;2026475;29;20040;-53
2023/12/30 03:08:30;;;;;;;3.83;0.90;;;;;;;;;;2026309;29;20047;-53
2023/12/30 03:09:30;;;;;;;3.13;0.80;;;;;;;;;;2026198;29;20028;-53
2023/12/30 03:10:31;;;;;;;1.88;0.60;;;;;;;;;;2026364;29;20035;-54
2023/12/30 03:11:32;;;;;;;0.68;0.57;;;;;;;;;;2026354;29;20425;-53
2023/12/30 03:12:33;;;;;;;1.80;0.73;;;;;;;;;;2026278;29;20041;-53
2023/12/30 03:13:34;;;;;;;2.35;0.55;;;;;;;;;;2026280;29;20108;-53
2023/12/30 03:14:36;;;;;;;2.92;0.88;;;;;;;;;;2025498;29;20040;-53
2023/12/30 03:15:36;;;;;;;1.33;0.65;;;;;;;;;;2025988;29;20409;-53
2023/12/30 03:16:37;;;;;;;3.08;0.77;;;;;;;;;;2026201;29;20477;-53
2023/12/30 03:17:38;;;;;;;1.52;0.60;;;;;;;;;;2017729;29;20045;-52
2023/12/30 03:18:39;;;;;;;4.07;0.90;;;;;;;;;;2017916;29;20033;-53
2023/12/30 03:19:40;;;;;;;2.05;0.70;;;;;;;;;;2026176;29;20115;-54
2023/12/30 03:20:41;;;;;;;1.25;0.70;;;;;;;;;;2026047;29;20040;-53
2023/12/30 03:21:42;;;;;;;1.67;0.80;;;;;;;;;;2025956;29;20050;-53
2023/12/30 03:22:43;;;;;;;3.60;0.75;;;;;;;;;;2026257;29;20397;-53
2023/12/30 03:23:43;;;;;;;2.53;0.82;;;;;;;;;;2025709;29;20048;-53
2023/12/30 03:24:44;;;;;;;1.25;0.57;;;;;;;;;;2024961;29;20049;-53
2023/12/30 03:25:45;;;;;;;2.17;0.98;;;;;;;;;;2018099;29;20052;-53
2023/12/30 03:26:45;;;;;;;1.25;0.80;;;;;;;;;;2010146;29;20398;-54
2023/12/30 03:27:46;;;;;;;3.55;0.52;;;;;;;;;;2017923;29;20029;-52
2023/12/30 03:28:47;;;;;;;2.50;0.60;;;;;;;;;;2024819;29;20048;-53
2023/12/30 03:29:48;;;;;;;1.88;0.85;;;;;;;;;;2025380;29;20501;-53
2023/12/30 03:30:49;;;;;;;3.38;0.80;;;;;;;;;;2025027;29;20060;-53
2023/12/30 03:31:50;;;;;;;4.05;1.00;;;;;;;;;;2017706;29;20041;-53
2023/12/30 03:32:50;;;;;;;6.53;1.15;;;;;;;;;;2010120;29;20049;-52
2023/12/30 03:33:53;;;;;;;1.33;0.80;;;;;;;;;;2010255;29;20052;-52
2023/12/30 03:34:53;;;;;;;1.30;0.50;;;;;;;;;;2017782;29;20546;-57
2023/12/30 03:35:54;;;;;;;0.73;0.50;;;;;;;;;;2026050;29;20089;-53
2023/12/30 03:36:55;;;;;;;2.42;0.93;;;;;;;;;;2025417;29;20106;-53
2023/12/30 03:37:56;;;;;;;2.47;0.80;;;;;;;;;;2017862;29;20506;-53
2023/12/30 03:38:56;;;;;;;1.05;0.60;;;;;;;;;;2009540;29;20049;-52
2023/12/30 03:39:57;;;;;;;3.80;1.10;;;;;;;;;;2017939;29;20080;-52
2023/12/30 03:40:58;;;;;;;2.22;0.70;;;;;;;;;;2026154;29;20084;-52
2023/12/30 03:41:59;;;;;;;2.40;1.00;;;;;;;;;;2025460;29;20041;-53
2023/12/30 03:43:00;;;;;;;3.03;1.08;;;;;;;;;;2017639;29;20063;-53
2023/12/30 03:44:01;;;;;;;2.60;0.47;;;;;;;;;;2017278;29;20040;-52
2023/12/30 03:45:02;;;;;;;1.52;0.85;;;;;;;;;;2017703;29;20429;-54
2023/12/30 03:46:03;;;;;;;2.38;0.80;;;;;;;;;;2017714;29;20053;-52
2023/12/30 03:47:04;;;;;;;5.70;0.98;;;;;;;;;;2024887;29;20040;-53
2023/12/30 03:48:04;;;;;;;3.53;0.80;;;;;;;;;;2026198;29;20067;-53
2023/12/30 03:49:05;;;;;;;1.65;0.80;;;;;;;;;;2026115;29;20036;-52
2023/12/30 03:50:06;;;;;;;1.38;0.73;;;;;;;;;;2025953;29;20033;-52
2023/12/30 03:51:07;;;;;;;1.15;0.70;;;;;;;;;;2025720;29;20044;-53
2023/12/30 03:52:08;;;;;;;1.10;0.68;;;;;;;;;;2026165;29;20087;-53
2023/12/30 03:53:08;;;;;;;2.22;0.88;;;;;;;;;;2017731;29;20045;-52
2023/12/30 03:54:09;;;;;;;0.88;0.60;;;;;;;;;;2017736;29;20047;-53
2023/12/30 03:55:10;;;;;;;0.93;0.63;;;;;;;;;;2017365;29;20049;-52
2023/12/30 03:56:12;;;;;;;1.65;0.60;;;;;;;;;;2017691;29;20041;-53
2023/12/30 03:57:13;;;;;;;1.70;0.60;;;;;;;;;;2025383;29;20043;-53
2023/12/30 03:58:14;;;;;;;5.03;0.98;;;;;;;;;;2024604;29;20059;-52
2023/12/30 03:59:14;;;;;;;1.75;0.75;;;;;;;;;;2025088;29;20055;-52
2023/12/30 04:00:15;;;;;;;2.25;0.95;;;;;;;;;;2025494;29;20421;-54
2023/12/30 04:01:16;;;;;;;1.67;0.52;;;;;;;;;;2026072;29;20526;-53
2023/12/30 04:02:20;;;;;;;0.88;0.60;;;;;;;;;;2025787;29;20492;-54
2023/12/30 04:03:22;;;;;;;1.15;0.60;;;;;;;;;;2025488;29;20067;-52
2023/12/30 04:04:22;;;;;;;1.02;0.68;;;;;;;;;;2025451;29;20053;-53
2023/12/30 04:05:23;;;;;;;2.20;1.10;;;;;;;;;;2026047;29;20039;-52
2023/12/30 04:06:24;;;;;;;2.65;0.93;;;;;;;;;;2026120;29;20122;-53
2023/12/30 04:07:25;;;;;;;1.95;0.63;;;;;;;;;;2025404;29;20044;-52
2023/12/30 04:08:25;;;;;;;2.10;0.80;;;;;;;;;;2025911;29;20040;-53
2023/12/30 04:09:26;;;;;;;1.45;0.57;;;;;;;;;;2025350;29;20417;-53
2023/12/30 04:10:27;;;;;;;2.65;0.90;;;;;;;;;;2025369;29;20509;-53
2023/12/30 04:11:27;;;;;;;1.40;0.73;;;;;;;;;;2026048;29;20040;-53
2023/12/30 04:12:30;;;;;;;1.00;0.70;;;;;;;;;;2017231;29;20044;-52
2023/12/30 04:13:31;;;;;;;3.83;1.20;;;;;;;;;;2018081;29;20036;-54
2023/12/30 04:14:32;;;;;;;1.50;0.80;;;;;;;;;;2016877;29;20096;-52
2023/12/30 04:15:32;;;;;;;2.83;0.80;;;;;;;;;;2017908;29;20044;-52
2023/12/30 04:16:33;;;;;;;2.72;0.80;;;;;;;;;;2017986;29;20044;-53
2023/12/30 04:17:34;;;;;;;1.52;0.80;;;;;;;;;;2017808;29;20051;-54
2023/12/30 04:18:34;;;;;;;1.30;0.80;;;;;;;;;;2017807;29;20052;-53
2023/12/30 04:19:35;;;;;;;2.17;0.85;;;;;;;;;;2009869;29;20061;-53
2023/12/30 04:20:36;;;;;;;1.25;0.50;;;;;;;;;;2017157;29;20048;-53
2023/12/30 04:21:37;;;;;;;2.33;0.75;;;;;;;;;;2026007;29;20362;-53
2023/12/30 04:22:37;;;;;;;1.38;0.68;;;;;;;;;;2025296;29;20043;-52
2023/12/30 04:23:38;;;;;;;2.95;0.80;;;;;;;;;;2017372;29;20136;-53
2023/12/30 04:24:39;;;;;;;5.15;1.08;;;;;;;;;;2009956;29;20042;-53
2023/12/30 04:25:39;;;;;;;3.85;0.95;;;;;;;;;;2010046;29;20375;-53
2023/12/30 04:26:42;;;;;;;2.65;0.75;;;;;;;;;;2009999;29;20120;-52
2023/12/30 04:27:43;;;;;;;1.48;0.75;;;;;;;;;;2009492;29;20299;-53
2023/12/30 04:28:45;;;;;;;1.55;0.77;;;;;;;;;;2018358;29;20451;-58
2023/12/30 04:29:46;;;;;;;1.55;0.95;;;;;;;;;;2018729;29;20052;-52
2023/12/30 04:30:47;;;;;;;1.73;0.98;;;;;;;;;;2018377;29;20433;-53
2023/12/30 04:31:48;;;;;;;1.38;0.82;;;;;;;;;;2017714;29;20053;-56
2023/12/30 04:32:49;;;;;;;2.35;0.80;;;;;;;;;;2019552;29;20040;-52
2023/12/30 04:33:49;;;;;;;2.97;1.00;;;;;;;;;;2027767;29;20041;-52
2023/12/30 04:34:50;;;;;;;5.25;1.02;;;;;;;;;;2018940;29;20049;-53
2023/12/30 04:35:51;;;;;;;0.75;0.60;;;;;;;;;;2018603;29;20160;-53
2023/12/30 04:36:52;;;;;;;0.85;0.60;;;;;;;;;;2026005;29;20428;-53
2023/12/30 04:37:52;;;;;;;1.70;0.60;;;;;;;;;;2018788;29;20474;-52
2023/12/30 04:38:55;;;;;;;5.40;1.10;;;;;;;;;;2019276;29;20501;-53
2023/12/30 04:39:56;;;;;;;3.08;1.00;;;;;;;;;;2026817;29;20040;-53
2023/12/30 04:40:57;;;;;;;2.50;0.85;;;;;;;;;;2018464;29;20045;-53
2023/12/30 04:41:57;;;;;;;2.00;0.88;;;;;;;;;;2019480;29;20044;-53
2023/12/30 04:42:58;;;;;;;2.88;0.90;;;;;;;;;;2027254;29;20032;-53
2023/12/30 04:43:59;;;;;;;1.83;0.98;;;;;;;;;;2026110;29;20496;-53
2023/12/30 04:45:00;;;;;;;3.17;1.00;;;;;;;;;;2018926;29;20052;-52
2023/12/30 04:46:00;;;;;;;3.55;0.82;;;;;;;;;;2011355;29;20049;-53
2023/12/30 04:47:01;;;;;;;2.53;0.70;;;;;;;;;;2017979;29;20127;-53
2023/12/30 04:48:02;;;;;;;1.85;0.88;;;;;;;;;;2025995;29;20059;-54
2023/12/30 04:49:03;;;;;;;1.80;1.20;;;;;;;;;;2026675;29;20044;-53
2023/12/30 04:50:05;;;;;;;1.88;0.80;;;;;;;;;;2018904;29;20041;-52
2023/12/30 04:51:06;;;;;;;2.28;0.82;;;;;;;;;;2018275;29;20053;-53
2023/12/30 04:52:08;;;;;;;4.00;0.98;;;;;;;;;;2019145;29;20386;-52
2023/12/30 04:53:08;;;;;;;2.35;0.90;;;;;;;;;;2018439;29;20059;-53
2023/12/30 04:54:09;;;;;;;3.65;1.08;;;;;;;;;;2019195;29;20045;-52
2023/12/30 04:55:10;;;;;;;3.47;0.90;;;;;;;;;;2018635;29;20049;-55
2023/12/30 04:56:14;;;;;;;3.03;0.98;;;;;;;;;;2019119;29;20033;-53
2023/12/30 04:57:15;;;;;;;2.97;0.70;;;;;;;;;;2027132;29;20048;-53
2023/12/30 04:58:16;;;;;;;3.50;1.20;;;;;;;;;;2026455;29;20047;-53
2023/12/30 04:59:17;;;;;;;2.85;0.90;;;;;;;;;;2018819;29;20036;-53
2023/12/30 05:00:18;;;;;;;1.77;1.00;;;;;;;;;;2018948;29;20053;-53
2023/12/30 05:01:18;;;;;;;1.95;0.60;;;;;;;;;;2027075;29;20068;-53
2023/12/30 05:02:19;;;;;;;3.22;0.80;;;;;;;;;;2026867;29;20040;-52
2023/12/30 05:03:20;;;;;;;1.80;0.70;;;;;;;;;;2026060;29;20521;-53
2023/12/30 05:04:21;;;;;;;1.58;0.73;;;;;;;;;;2018772;29;20049;-52
2023/12/30 05:05:22;;;;;;;4.85;1.23;;;;;;;;;;2010496;29;20053;-54
2023/12/30 05:06:23;;;;;;;2.75;0.80;;;;;;;;;;2011270;29;20484;-53
2023/12/30 05:07:23;;;;;;;2.83;0.93;;;;;;;;;;2018492;29;20119;-53
2023/12/30 05:08:24;;;;;;;1.13;0.70;;;;;;;;;;2026534;29;20064;-52
2023/12/30 05:09:25;;;;;;;2.10;0.73;;;;;;;;;;2025952;29;20044;-52
2023/12/30 05:10:25;;;;;;;4.88;0.90;;;;;;;;;;2027560;29;20068;-52
2023/12/30 05:11:26;;;;;;;2.05;0.90;;;;;;;;;;2027135;29;20033;-53
2023/12/30 05:12:27;;;;;;;1.23;0.70;;;;;;;;;;2026110;29;20040;-53
2023/12/30 05:13:28;;;;;;;1.80;0.60;;;;;;;;;;2027015;29;20389;-51
2023/12/30 05:14:29;;;;;;;2.40;0.70;;;;;;;;;;2027040;29;20029;-52
2023/12/30 05:15:29;;;;;;;6.43;0.80;;;;;;;;;;2018949;29;20045;-53
2023/12/30 05:16:30;;;;;;;1.48;0.40;;;;;;;;;;2019091;29;20044;-52
2023/12/30 05:17:31;;;;;;;3.90;0.68;;;;;;;;;;2027390;29;20028;-52
2023/12/30 05:18:32;;;;;;;1.77;0.73;;;;;;;;;;2026944;29;20383;-52
2023/12/30 05:19:32;;;;;;;1.52;0.65;;;;;;;;;;2026335;29;20040;-52
2023/12/30 05:20:33;;;;;;;1.80;0.75;;;;;;;;;;2027194;29;20060;-52
2023/12/30 05:21:34;;;;;;;2.30;0.73;;;;;;;;;;2026758;29;20409;-52
2023/12/30 05:22:35;;;;;;;4.47;0.98;;;;;;;;;;2026689;29;20029;-52
2023/12/30 05:23:35;;;;;;;1.17;0.60;;;;;;;;;;2027069;29;20048;-52
2023/12/30 05:24:36;;;;;;;2.22;0.77;;;;;;;;;;2026375;29;20045;-52
2023/12/30 05:25:37;;;;;;;2.00;0.77;;;;;;;;;;2026931;29;20044;-53
2023/12/30 05:26:37;;;;;;;2.03;0.60;;;;;;;;;;2027011;29;20028;-53
2023/12/30 05:27:38;;;;;;;0.55;0.45;;;;;;;;;;2027310;29;20470;-52
2023/12/30 05:28:39;;;;;;;2.58;0.68;;;;;;;;;;2027087;29;20039;-52
2023/12/30 05:29:40;;;;;;;5.88;0.75;;;;;;;;;;2026061;29;20401;-52
2023/12/30 05:30:41;;;;;;;0.90;0.38;;;;;;;;;;2026500;29;20044;-52
2023/12/30 05:31:41;;;;;;;4.38;0.50;;;;;;;;;;2027119;29;20040;-52
2023/12/30 05:32:42;;;;;;;3.40;0.80;;;;;;;;;;2026942;29;20036;-52
2023/12/30 05:33:43;;;;;;;1.95;0.75;;;;;;;;;;2027390;29;20079;-53
2023/12/30 05:34:44;;;;;;;2.08;0.80;;;;;;;;;;2027053;29;20048;-53
2023/12/30 05:35:44;;;;;;;1.73;0.75;;;;;;;;;;2026933;29;20392;-51
2023/12/30 05:36:45;;;;;;;1.08;0.45;;;;;;;;;;2026249;29;20055;-52
2023/12/30 05:37:46;;;;;;;3.55;1.00;;;;;;;;;;2027014;29;20041;-53
2023/12/30 05:38:47;;;;;;;1.25;0.70;;;;;;;;;;2026725;29;20041;-51
2023/12/30 05:39:47;;;;;;;3.17;0.73;;;;;;;;;;2026958;29;20200;-52
2023/12/30 05:40:48;;;;;;;1.58;1.02;;;;;;;;;;2027042;29;20041;-52
2023/12/30 05:41:49;;;;;;;2.08;1.13;;;;;;;;;;2026777;29;20366;-53
2023/12/30 05:42:49;;;;;;;3.17;0.93;;;;;;;;;;2026304;29;20052;-51
2023/12/30 05:43:51;;;;;;;0.85;0.60;;;;;;;;;;2026356;29;20124;-53
2023/12/30 05:44:51;;;;;;;1.83;0.52;;;;;;;;;;2025226;29;20044;-53
2023/12/30 05:45:52;;;;;;;2.70;0.70;;;;;;;;;;2026284;29;20486;-52
2023/12/30 05:46:53;;;;;;;1.65;0.57;;;;;;;;;;2026241;29;20114;-53
2023/12/30 05:47:54;;;;;;;2.67;0.90;;;;;;;;;;2025708;29;20084;-52
2023/12/30 05:48:54;;;;;;;2.85;0.60;;;;;;;;;;2026760;29;20066;-52
2023/12/30 05:49:55;;;;;;;1.65;1.00;;;;;;;;;;2027017;29;20028;-51
2023/12/30 05:50:56;;;;;;;1.65;0.65;;;;;;;;;;2027073;29;20040;-52
2023/12/30 05:51:56;;;;;;;1.67;0.50;;;;;;;;;;2027038;29;20370;-53
2023/12/30 05:52:57;;;;;;;3.38;0.82;;;;;;;;;;2026884;29;20516;-52
2023/12/30 05:53:58;;;;;;;0.85;0.45;;;;;;;;;;2026711;29;20036;-52
2023/12/30 05:54:59;;;;;;;2.10;0.70;;;;;;;;;;2026906;29;20037;-52
2023/12/30 05:55:59;;;;;;;1.25;0.50;;;;;;;;;;2026348;29;20060;-53
2023/12/30 05:57:00;;;;;;;2.67;0.70;;;;;;;;;;2026136;29;20048;-51
2023/12/30 05:58:01;;;;;;;1.52;0.88;;;;;;;;;;2026881;29;20450;-52
2023/12/30 05:59:02;;;;;;;4.13;0.90;;;;;;;;;;2026379;29;20184;-52
2023/12/30 06:00:03;;;;;;;1.75;0.55;;;;;;;;;;2026812;29;20040;-52
2023/12/30 06:01:13;;;;;;;2.72;0.75;;;;;;;;;;2027213;29;20044;-52
2023/12/30 06:02:13;;;;;;;0.63;0.30;;;;;;;;;;2026231;29;20079;-52
2023/12/30 06:03:14;;;;;;;1.30;0.90;;;;;;;;;;2026694;29;20063;-53
2023/12/30 06:04:15;;;;;;;3.55;0.73;;;;;;;;;;2026326;29;20060;-52
2023/12/30 06:05:16;;;;;;;0.93;0.40;;;;;;;;;;2026808;29;20036;-52
2023/12/30 06:06:17;;;;;;;3.58;1.00;;;;;;;;;;2026618;29;20037;-52